sensor_id;sensor_type;location;lat;lon;timestamp;P1;durP1;ratioP1;P2;durP2;ratioP2
21202;SDS011;10759;51.982;9.232;2023-03-14T00:02:26;3.15;;;1.77;;
21202;SDS011;10759;51.982;9.232;2023-03-14T00:04:54;2.63;;;1.60;;
21202;SDS011;10759;51.982;9.232;2023-03-14T00:07:24;2.88;;;1.50;;
21202;SDS011;10759;51.982;9.232;2023-03-14T00:09:52;4.10;;;1.70;;
21202;SDS011;10759;51.982;9.232;2023-03-14T00:12:20;2.15;;;1.52;;
21202;SDS011;10759;51.982;9.232;2023-03-14T00:14:48;2.60;;;1.58;;
21202;SDS011;10759;51.982;9.232;2023-03-14T00:17:15;3.90;;;1.52;;
21202;SDS011;10759;51.982;9.232;2023-03-14T00:19:43;3.75;;;2.08;;
21202;SDS011;10759;51.982;9.232;2023-03-14T00:22:11;6.25;;;3.05;;
21202;SDS011;10759;51.982;9.232;2023-03-14T00:24:40;4.47;;;1.95;;
21202;SDS011;10759;51.982;9.232;2023-03-14T00:27:08;3.40;;;1.60;;
21202;SDS011;10759;51.982;9.232;2023-03-14T00:29:37;2.78;;;1.40;;
21202;SDS011;10759;51.982;9.232;2023-03-14T00:32:05;3.28;;;1.63;;
21202;SDS011;10759;51.982;9.232;2023-03-14T00:34:33;1.52;;;1.05;;
21202;SDS011;10759;51.982;9.232;2023-03-14T00:37:01;3.65;;;1.50;;
21202;SDS011;10759;51.982;9.232;2023-03-14T00:39:29;6.13;;;1.77;;
21202;SDS011;10759;51.982;9.232;2023-03-14T00:41:58;2.83;;;1.40;;
21202;SDS011;10759;51.982;9.232;2023-03-14T00:44:28;3.95;;;1.95;;
21202;SDS011;10759;51.982;9.232;2023-03-14T00:46:56;4.50;;;1.90;;
21202;SDS011;10759;51.982;9.232;2023-03-14T00:49:24;3.97;;;2.08;;
21202;SDS011;10759;51.982;9.232;2023-03-14T00:51:52;4.40;;;1.50;;
21202;SDS011;10759;51.982;9.232;2023-03-14T00:54:20;5.18;;;1.65;;
21202;SDS011;10759;51.982;9.232;2023-03-14T00:56:48;4.07;;;1.98;;
21202;SDS011;10759;51.982;9.232;2023-03-14T00:59:18;4.30;;;1.80;;
21202;SDS011;10759;51.982;9.232;2023-03-14T01:01:46;4.20;;;1.55;;
21202;SDS011;10759;51.982;9.232;2023-03-14T01:04:13;2.22;;;1.30;;
21202;SDS011;10759;51.982;9.232;2023-03-14T01:06:41;2.95;;;1.70;;
21202;SDS011;10759;51.982;9.232;2023-03-14T01:09:09;3.75;;;1.50;;
21202;SDS011;10759;51.982;9.232;2023-03-14T01:11:37;3.92;;;1.50;;
21202;SDS011;10759;51.982;9.232;2023-03-14T01:14:05;6.35;;;2.13;;
21202;SDS011;10759;51.982;9.232;2023-03-14T01:16:35;3.53;;;1.95;;
21202;SDS011;10759;51.982;9.232;2023-03-14T01:19:03;2.50;;;1.70;;
21202;SDS011;10759;51.982;9.232;2023-03-14T01:21:31;2.47;;;1.30;;
21202;SDS011;10759;51.982;9.232;2023-03-14T01:24:01;4.22;;;1.75;;
21202;SDS011;10759;51.982;9.232;2023-03-14T01:26:30;2.88;;;1.55;;
21202;SDS011;10759;51.982;9.232;2023-03-14T01:31:28;2.65;;;1.40;;
21202;SDS011;10759;51.982;9.232;2023-03-14T01:33:57;2.38;;;1.63;;
21202;SDS011;10759;51.982;9.232;2023-03-14T01:36:25;3.17;;;1.80;;
21202;SDS011;10759;51.982;9.232;2023-03-14T01:38:58;2.47;;;1.58;;
21202;SDS011;10759;51.982;9.232;2023-03-14T01:41:27;2.58;;;1.60;;
21202;SDS011;10759;51.982;9.232;2023-03-14T01:46:29;3.22;;;1.58;;
21202;SDS011;10759;51.982;9.232;2023-03-14T01:49:03;2.47;;;1.50;;
21202;SDS011;10759;51.982;9.232;2023-03-14T01:51:36;2.13;;;1.60;;
21202;SDS011;10759;51.982;9.232;2023-03-14T01:54:12;5.68;;;1.40;;
21202;SDS011;10759;51.982;9.232;2023-03-14T01:56:47;1.90;;;1.30;;
21202;SDS011;10759;51.982;9.232;2023-03-14T01:59:20;4.72;;;1.50;;
21202;SDS011;10759;51.982;9.232;2023-03-14T02:01:49;2.80;;;1.48;;
21202;SDS011;10759;51.982;9.232;2023-03-14T02:04:20;2.25;;;1.48;;
21202;SDS011;10759;51.982;9.232;2023-03-14T02:06:52;3.50;;;1.40;;
21202;SDS011;10759;51.982;9.232;2023-03-14T02:09:27;5.00;;;1.40;;
21202;SDS011;10759;51.982;9.232;2023-03-14T02:11:56;4.45;;;2.50;;
21202;SDS011;10759;51.982;9.232;2023-03-14T02:14:39;3.60;;;1.52;;
21202;SDS011;10759;51.982;9.232;2023-03-14T02:17:27;2.30;;;1.25;;
21202;SDS011;10759;51.982;9.232;2023-03-14T02:20:10;3.45;;;1.75;;
21202;SDS011;10759;51.982;9.232;2023-03-14T02:25:24;6.03;;;1.60;;
21202;SDS011;10759;51.982;9.232;2023-03-14T02:28:04;4.07;;;1.65;;
21202;SDS011;10759;51.982;9.232;2023-03-14T02:30:33;1.58;;;1.13;;
21202;SDS011;10759;51.982;9.232;2023-03-14T02:33:03;2.45;;;1.27;;
21202;SDS011;10759;51.982;9.232;2023-03-14T02:38:03;2.38;;;1.80;;
21202;SDS011;10759;51.982;9.232;2023-03-14T02:40:40;1.48;;;1.35;;
21202;SDS011;10759;51.982;9.232;2023-03-14T02:43:10;3.25;;;1.40;;
21202;SDS011;10759;51.982;9.232;2023-03-14T02:45:43;2.25;;;1.27;;
21202;SDS011;10759;51.982;9.232;2023-03-14T02:48:16;3.60;;;1.52;;
21202;SDS011;10759;51.982;9.232;2023-03-14T02:50:46;3.63;;;1.70;;
21202;SDS011;10759;51.982;9.232;2023-03-14T02:53:17;2.85;;;1.50;;
21202;SDS011;10759;51.982;9.232;2023-03-14T02:55:48;5.25;;;1.92;;
21202;SDS011;10759;51.982;9.232;2023-03-14T02:58:20;5.43;;;1.58;;
21202;SDS011;10759;51.982;9.232;2023-03-14T03:00:53;2.90;;;1.27;;
21202;SDS011;10759;51.982;9.232;2023-03-14T03:03:22;4.80;;;1.38;;
21202;SDS011;10759;51.982;9.232;2023-03-14T03:05:50;3.92;;;1.48;;
21202;SDS011;10759;51.982;9.232;2023-03-14T03:08:19;2.67;;;1.27;;
21202;SDS011;10759;51.982;9.232;2023-03-14T03:10:49;5.30;;;1.38;;
21202;SDS011;10759;51.982;9.232;2023-03-14T03:13:18;2.42;;;1.60;;
21202;SDS011;10759;51.982;9.232;2023-03-14T03:15:51;4.55;;;1.70;;
21202;SDS011;10759;51.982;9.232;2023-03-14T03:18:20;4.80;;;1.88;;
21202;SDS011;10759;51.982;9.232;2023-03-14T03:20:48;7.80;;;1.75;;
21202;SDS011;10759;51.982;9.232;2023-03-14T03:23:16;4.38;;;1.48;;
21202;SDS011;10759;51.982;9.232;2023-03-14T03:25:47;1.92;;;1.40;;
21202;SDS011;10759;51.982;9.232;2023-03-14T03:28:16;4.22;;;1.52;;
21202;SDS011;10759;51.982;9.232;2023-03-14T03:30:45;2.70;;;1.10;;
21202;SDS011;10759;51.982;9.232;2023-03-14T03:33:14;3.97;;;1.67;;
21202;SDS011;10759;51.982;9.232;2023-03-14T03:35:44;2.70;;;1.00;;
21202;SDS011;10759;51.982;9.232;2023-03-14T03:38:17;2.17;;;0.70;;
21202;SDS011;10759;51.982;9.232;2023-03-14T03:40:49;0.77;;;0.68;;
21202;SDS011;10759;51.982;9.232;2023-03-14T03:43:16;1.02;;;0.50;;
21202;SDS011;10759;51.982;9.232;2023-03-14T03:45:48;1.55;;;0.50;;
21202;SDS011;10759;51.982;9.232;2023-03-14T03:48:18;1.27;;;0.50;;
21202;SDS011;10759;51.982;9.232;2023-03-14T03:50:45;0.55;;;0.50;;
21202;SDS011;10759;51.982;9.232;2023-03-14T03:53:18;0.95;;;0.50;;
21202;SDS011;10759;51.982;9.232;2023-03-14T03:55:59;0.77;;;0.60;;
21202;SDS011;10759;51.982;9.232;2023-03-14T03:58:28;1.10;;;0.65;;
21202;SDS011;10759;51.982;9.232;2023-03-14T04:00:57;1.13;;;0.77;;
21202;SDS011;10759;51.982;9.232;2023-03-14T04:03:25;2.33;;;1.03;;
21202;SDS011;10759;51.982;9.232;2023-03-14T04:05:58;0.80;;;0.60;;
21202;SDS011;10759;51.982;9.232;2023-03-14T04:08:27;1.02;;;0.60;;
21202;SDS011;10759;51.982;9.232;2023-03-14T04:10:56;1.10;;;1.00;;
21202;SDS011;10759;51.982;9.232;2023-03-14T04:13:51;1.38;;;0.63;;
21202;SDS011;10759;51.982;9.232;2023-03-14T04:16:21;3.83;;;0.80;;
21202;SDS011;10759;51.982;9.232;2023-03-14T04:18:56;2.00;;;1.02;;
21202;SDS011;10759;51.982;9.232;2023-03-14T04:21:25;1.73;;;0.80;;
21202;SDS011;10759;51.982;9.232;2023-03-14T04:23:55;2.83;;;0.93;;
21202;SDS011;10759;51.982;9.232;2023-03-14T04:26:28;2.85;;;1.00;;
21202;SDS011;10759;51.982;9.232;2023-03-14T04:28:56;3.22;;;0.88;;
21202;SDS011;10759;51.982;9.232;2023-03-14T04:31:25;1.55;;;0.90;;
21202;SDS011;10759;51.982;9.232;2023-03-14T04:33:53;4.65;;;1.20;;
21202;SDS011;10759;51.982;9.232;2023-03-14T04:36:28;3.47;;;0.90;;
21202;SDS011;10759;51.982;9.232;2023-03-14T04:39:01;3.85;;;1.25;;
21202;SDS011;10759;51.982;9.232;2023-03-14T04:43:59;3.45;;;1.20;;
21202;SDS011;10759;51.982;9.232;2023-03-14T04:46:29;7.38;;;1.50;;
21202;SDS011;10759;51.982;9.232;2023-03-14T04:48:58;3.10;;;1.27;;
21202;SDS011;10759;51.982;9.232;2023-03-14T04:51:27;3.75;;;1.50;;
21202;SDS011;10759;51.982;9.232;2023-03-14T04:53:55;1.80;;;0.93;;
21202;SDS011;10759;51.982;9.232;2023-03-14T04:56:23;1.60;;;0.93;;
21202;SDS011;10759;51.982;9.232;2023-03-14T04:58:52;2.72;;;0.90;;
21202;SDS011;10759;51.982;9.232;2023-03-14T05:01:20;3.78;;;0.90;;
21202;SDS011;10759;51.982;9.232;2023-03-14T05:04:07;3.45;;;1.05;;
21202;SDS011;10759;51.982;9.232;2023-03-14T05:06:54;2.92;;;0.88;;
21202;SDS011;10759;51.982;9.232;2023-03-14T05:09:40;2.88;;;1.00;;
21202;SDS011;10759;51.982;9.232;2023-03-14T05:12:25;4.55;;;1.27;;
21202;SDS011;10759;51.982;9.232;2023-03-14T05:15:12;2.72;;;1.35;;
21202;SDS011;10759;51.982;9.232;2023-03-14T05:17:51;3.30;;;1.90;;
21202;SDS011;10759;51.982;9.232;2023-03-14T05:20:35;4.53;;;1.20;;
21202;SDS011;10759;51.982;9.232;2023-03-14T05:23:21;4.93;;;1.27;;
21202;SDS011;10759;51.982;9.232;2023-03-14T05:26:03;2.30;;;1.00;;
21202;SDS011;10759;51.982;9.232;2023-03-14T05:28:42;1.92;;;1.08;;
21202;SDS011;10759;51.982;9.232;2023-03-14T05:31:10;1.55;;;1.02;;
21202;SDS011;10759;51.982;9.232;2023-03-14T05:34:04;1.70;;;0.95;;
21202;SDS011;10759;51.982;9.232;2023-03-14T05:36:39;3.95;;;0.98;;
21202;SDS011;10759;51.982;9.232;2023-03-14T05:39:22;4.20;;;1.08;;
21202;SDS011;10759;51.982;9.232;2023-03-14T05:42:01;3.33;;;1.70;;
21202;SDS011;10759;51.982;9.232;2023-03-14T05:44:50;1.13;;;0.82;;
21202;SDS011;10759;51.982;9.232;2023-03-14T05:47:36;3.28;;;0.90;;
21202;SDS011;10759;51.982;9.232;2023-03-14T05:50:16;3.40;;;1.23;;
21202;SDS011;10759;51.982;9.232;2023-03-14T05:52:56;1.40;;;0.80;;
21202;SDS011;10759;51.982;9.232;2023-03-14T05:55:42;4.13;;;1.20;;
21202;SDS011;10759;51.982;9.232;2023-03-14T05:58:18;2.65;;;1.17;;
21202;SDS011;10759;51.982;9.232;2023-03-14T06:01:05;4.63;;;1.73;;
21202;SDS011;10759;51.982;9.232;2023-03-14T06:03:54;2.67;;;1.00;;
21202;SDS011;10759;51.982;9.232;2023-03-14T06:06:22;6.13;;;1.30;;
21202;SDS011;10759;51.982;9.232;2023-03-14T06:08:51;2.97;;;0.93;;
21202;SDS011;10759;51.982;9.232;2023-03-14T06:11:19;3.33;;;1.77;;
21202;SDS011;10759;51.982;9.232;2023-03-14T06:13:47;2.03;;;1.40;;
21202;SDS011;10759;51.982;9.232;2023-03-14T06:16:15;1.83;;;0.90;;
21202;SDS011;10759;51.982;9.232;2023-03-14T06:18:43;3.95;;;1.58;;
21202;SDS011;10759;51.982;9.232;2023-03-14T06:21:13;3.33;;;1.73;;
21202;SDS011;10759;51.982;9.232;2023-03-14T06:23:44;3.17;;;1.10;;
21202;SDS011;10759;51.982;9.232;2023-03-14T06:26:13;1.75;;;1.02;;
21202;SDS011;10759;51.982;9.232;2023-03-14T06:28:42;5.68;;;1.48;;
21202;SDS011;10759;51.982;9.232;2023-03-14T06:31:10;3.53;;;1.25;;
21202;SDS011;10759;51.982;9.232;2023-03-14T06:33:48;2.97;;;1.02;;
21202;SDS011;10759;51.982;9.232;2023-03-14T06:36:17;1.77;;;1.00;;
21202;SDS011;10759;51.982;9.232;2023-03-14T06:38:46;2.90;;;1.57;;
21202;SDS011;10759;51.982;9.232;2023-03-14T06:41:15;1.98;;;1.02;;
21202;SDS011;10759;51.982;9.232;2023-03-14T06:43:46;5.28;;;1.85;;
21202;SDS011;10759;51.982;9.232;2023-03-14T06:46:14;3.45;;;1.50;;
21202;SDS011;10759;51.982;9.232;2023-03-14T06:48:42;1.65;;;1.55;;
21202;SDS011;10759;51.982;9.232;2023-03-14T06:51:11;3.67;;;1.63;;
21202;SDS011;10759;51.982;9.232;2023-03-14T06:53:39;3.75;;;1.42;;
21202;SDS011;10759;51.982;9.232;2023-03-14T06:56:08;3.38;;;2.15;;
21202;SDS011;10759;51.982;9.232;2023-03-14T06:58:37;2.58;;;1.45;;
21202;SDS011;10759;51.982;9.232;2023-03-14T07:01:12;5.88;;;1.48;;
21202;SDS011;10759;51.982;9.232;2023-03-14T07:03:48;3.53;;;1.48;;
21202;SDS011;10759;51.982;9.232;2023-03-14T07:06:16;6.88;;;4.75;;
21202;SDS011;10759;51.982;9.232;2023-03-14T07:08:44;5.18;;;2.70;;
21202;SDS011;10759;51.982;9.232;2023-03-14T07:11:14;4.15;;;1.92;;
21202;SDS011;10759;51.982;9.232;2023-03-14T07:13:43;5.50;;;2.47;;
21202;SDS011;10759;51.982;9.232;2023-03-14T07:16:12;3.67;;;1.80;;
21202;SDS011;10759;51.982;9.232;2023-03-14T07:18:40;4.32;;;2.08;;
21202;SDS011;10759;51.982;9.232;2023-03-14T07:21:08;4.70;;;1.92;;
21202;SDS011;10759;51.982;9.232;2023-03-14T07:23:37;6.10;;;2.63;;
21202;SDS011;10759;51.982;9.232;2023-03-14T07:26:06;7.10;;;3.47;;
21202;SDS011;10759;51.982;9.232;2023-03-14T07:28:38;4.97;;;2.13;;
21202;SDS011;10759;51.982;9.232;2023-03-14T07:31:13;6.07;;;4.60;;
21202;SDS011;10759;51.982;9.232;2023-03-14T07:33:41;11.23;;;5.00;;
21202;SDS011;10759;51.982;9.232;2023-03-14T07:36:09;6.10;;;2.85;;
21202;SDS011;10759;51.982;9.232;2023-03-14T07:38:41;8.25;;;2.60;;
21202;SDS011;10759;51.982;9.232;2023-03-14T07:41:47;7.18;;;2.28;;
21202;SDS011;10759;51.982;9.232;2023-03-14T07:44:41;7.20;;;1.70;;
21202;SDS011;10759;51.982;9.232;2023-03-14T07:47:10;5.53;;;1.45;;
21202;SDS011;10759;51.982;9.232;2023-03-14T07:49:38;1.88;;;1.25;;
21202;SDS011;10759;51.982;9.232;2023-03-14T07:52:06;5.25;;;2.05;;
21202;SDS011;10759;51.982;9.232;2023-03-14T07:54:34;4.97;;;1.40;;
21202;SDS011;10759;51.982;9.232;2023-03-14T07:57:02;4.90;;;1.77;;
21202;SDS011;10759;51.982;9.232;2023-03-14T07:59:30;4.00;;;1.60;;
21202;SDS011;10759;51.982;9.232;2023-03-14T08:01:58;5.25;;;1.75;;
21202;SDS011;10759;51.982;9.232;2023-03-14T08:04:27;3.40;;;1.38;;
21202;SDS011;10759;51.982;9.232;2023-03-14T08:06:55;4.35;;;1.70;;
21202;SDS011;10759;51.982;9.232;2023-03-14T08:09:22;3.97;;;1.40;;
21202;SDS011;10759;51.982;9.232;2023-03-14T08:11:50;3.50;;;1.30;;
21202;SDS011;10759;51.982;9.232;2023-03-14T08:14:18;2.00;;;1.10;;
21202;SDS011;10759;51.982;9.232;2023-03-14T08:16:46;2.25;;;1.00;;
21202;SDS011;10759;51.982;9.232;2023-03-14T08:19:14;4.82;;;1.30;;
21202;SDS011;10759;51.982;9.232;2023-03-14T08:21:43;2.97;;;1.42;;
21202;SDS011;10759;51.982;9.232;2023-03-14T08:24:11;1.97;;;1.50;;
21202;SDS011;10759;51.982;9.232;2023-03-14T08:26:39;2.28;;;1.05;;
21202;SDS011;10759;51.982;9.232;2023-03-14T08:29:07;3.97;;;1.40;;
21202;SDS011;10759;51.982;9.232;2023-03-14T08:31:35;2.38;;;1.35;;
21202;SDS011;10759;51.982;9.232;2023-03-14T08:34:03;6.03;;;3.78;;
21202;SDS011;10759;51.982;9.232;2023-03-14T08:36:32;4.28;;;2.53;;
21202;SDS011;10759;51.982;9.232;2023-03-14T08:39:02;3.33;;;1.70;;
21202;SDS011;10759;51.982;9.232;2023-03-14T08:41:33;2.22;;;1.25;;
21202;SDS011;10759;51.982;9.232;2023-03-14T08:44:06;2.25;;;1.08;;
21202;SDS011;10759;51.982;9.232;2023-03-14T08:46:34;2.28;;;1.02;;
21202;SDS011;10759;51.982;9.232;2023-03-14T08:49:02;2.70;;;1.10;;
21202;SDS011;10759;51.982;9.232;2023-03-14T08:51:30;1.55;;;1.23;;
21202;SDS011;10759;51.982;9.232;2023-03-14T08:53:58;3.60;;;1.63;;
21202;SDS011;10759;51.982;9.232;2023-03-14T08:56:27;2.08;;;0.98;;
21202;SDS011;10759;51.982;9.232;2023-03-14T08:58:55;1.05;;;1.02;;
21202;SDS011;10759;51.982;9.232;2023-03-14T09:01:24;1.08;;;0.70;;
21202;SDS011;10759;51.982;9.232;2023-03-14T09:03:52;1.23;;;0.95;;
21202;SDS011;10759;51.982;9.232;2023-03-14T09:06:20;1.42;;;0.80;;
21202;SDS011;10759;51.982;9.232;2023-03-14T09:08:48;1.83;;;0.90;;
21202;SDS011;10759;51.982;9.232;2023-03-14T09:11:16;0.77;;;0.68;;
21202;SDS011;10759;51.982;9.232;2023-03-14T09:13:46;2.20;;;0.70;;
21202;SDS011;10759;51.982;9.232;2023-03-14T09:16:15;1.17;;;0.88;;
21202;SDS011;10759;51.982;9.232;2023-03-14T09:18:43;1.30;;;0.60;;
21202;SDS011;10759;51.982;9.232;2023-03-14T09:21:10;1.70;;;0.70;;
21202;SDS011;10759;51.982;9.232;2023-03-14T09:23:38;1.58;;;0.60;;
21202;SDS011;10759;51.982;9.232;2023-03-14T09:26:06;0.65;;;0.60;;
21202;SDS011;10759;51.982;9.232;2023-03-14T09:28:35;0.50;;;0.50;;
21202;SDS011;10759;51.982;9.232;2023-03-14T09:31:08;0.40;;;0.40;;
21202;SDS011;10759;51.982;9.232;2023-03-14T09:33:37;0.90;;;0.70;;
21202;SDS011;10759;51.982;9.232;2023-03-14T09:36:05;0.47;;;0.47;;
21202;SDS011;10759;51.982;9.232;2023-03-14T09:38:34;0.50;;;0.50;;
21202;SDS011;10759;51.982;9.232;2023-03-14T09:41:03;0.50;;;0.50;;
21202;SDS011;10759;51.982;9.232;2023-03-14T09:43:40;0.60;;;0.60;;
21202;SDS011;10759;51.982;9.232;2023-03-14T09:46:13;0.60;;;0.57;;
21202;SDS011;10759;51.982;9.232;2023-03-14T09:51:11;0.70;;;0.70;;
21202;SDS011;10759;51.982;9.232;2023-03-14T09:53:42;0.55;;;0.50;;
21202;SDS011;10759;51.982;9.232;2023-03-14T09:56:13;1.10;;;0.70;;
21202;SDS011;10759;51.982;9.232;2023-03-14T09:58:44;0.80;;;0.47;;
21202;SDS011;10759;51.982;9.232;2023-03-14T10:01:18;1.00;;;0.90;;
21202;SDS011;10759;51.982;9.232;2023-03-14T10:03:50;0.60;;;0.60;;
21202;SDS011;10759;51.982;9.232;2023-03-14T10:06:21;0.47;;;0.47;;
21202;SDS011;10759;51.982;9.232;2023-03-14T10:08:52;1.00;;;0.50;;
21202;SDS011;10759;51.982;9.232;2023-03-14T10:11:23;0.68;;;0.50;;
21202;SDS011;10759;51.982;9.232;2023-03-14T10:14:03;0.77;;;0.60;;
21202;SDS011;10759;51.982;9.232;2023-03-14T10:16:35;0.60;;;0.60;;
21202;SDS011;10759;51.982;9.232;2023-03-14T10:19:04;0.85;;;0.80;;
21202;SDS011;10759;51.982;9.232;2023-03-14T10:21:38;0.63;;;0.63;;
21202;SDS011;10759;51.982;9.232;2023-03-14T10:24:07;1.60;;;0.60;;
21202;SDS011;10759;51.982;9.232;2023-03-14T10:26:37;1.77;;;0.50;;
21202;SDS011;10759;51.982;9.232;2023-03-14T10:29:08;0.60;;;0.60;;
21202;SDS011;10759;51.982;9.232;2023-03-14T10:31:47;0.68;;;0.68;;
21202;SDS011;10759;51.982;9.232;2023-03-14T10:34:23;0.50;;;0.50;;
21202;SDS011;10759;51.982;9.232;2023-03-14T10:36:53;0.40;;;0.40;;
21202;SDS011;10759;51.982;9.232;2023-03-14T10:39:26;0.40;;;0.40;;
21202;SDS011;10759;51.982;9.232;2023-03-14T10:42:01;0.80;;;0.80;;
21202;SDS011;10759;51.982;9.232;2023-03-14T10:44:31;0.50;;;0.50;;
21202;SDS011;10759;51.982;9.232;2023-03-14T10:47:03;0.60;;;0.60;;
21202;SDS011;10759;51.982;9.232;2023-03-14T10:49:34;0.80;;;0.80;;
21202;SDS011;10759;51.982;9.232;2023-03-14T10:52:13;1.55;;;0.75;;
21202;SDS011;10759;51.982;9.232;2023-03-14T10:54:46;0.80;;;0.80;;
21202;SDS011;10759;51.982;9.232;2023-03-14T10:57:16;0.68;;;0.60;;
21202;SDS011;10759;51.982;9.232;2023-03-14T10:59:46;0.88;;;0.82;;
21202;SDS011;10759;51.982;9.232;2023-03-14T11:02:27;2.50;;;1.45;;
21202;SDS011;10759;51.982;9.232;2023-03-14T11:05:13;0.82;;;0.70;;
21202;SDS011;10759;51.982;9.232;2023-03-14T11:07:51;0.60;;;0.60;;
21202;SDS011;10759;51.982;9.232;2023-03-14T11:10:24;1.13;;;0.75;;
21202;SDS011;10759;51.982;9.232;2023-03-14T11:13:01;1.10;;;1.10;;
21202;SDS011;10759;51.982;9.232;2023-03-14T11:15:41;1.15;;;1.05;;
21202;SDS011;10759;51.982;9.232;2023-03-14T11:18:27;1.52;;;1.42;;
21202;SDS011;10759;51.982;9.232;2023-03-14T11:21:11;2.72;;;1.52;;
21202;SDS011;10759;51.982;9.232;2023-03-14T11:23:41;1.65;;;1.52;;
21202;SDS011;10759;51.982;9.232;2023-03-14T11:26:20;1.98;;;1.42;;
21202;SDS011;10759;51.982;9.232;2023-03-14T11:28:57;0.75;;;0.70;;
21202;SDS011;10759;51.982;9.232;2023-03-14T11:31:26;2.43;;;1.07;;
21202;SDS011;10759;51.982;9.232;2023-03-14T11:33:59;0.63;;;0.63;;
21202;SDS011;10759;51.982;9.232;2023-03-14T11:36:36;0.55;;;0.55;;
21202;SDS011;10759;51.982;9.232;2023-03-14T11:39:07;0.75;;;0.75;;
21202;SDS011;10759;51.982;9.232;2023-03-14T11:41:41;0.52;;;0.52;;
21202;SDS011;10759;51.982;9.232;2023-03-14T11:44:14;0.55;;;0.55;;
21202;SDS011;10759;51.982;9.232;2023-03-14T11:46:48;0.50;;;0.50;;
21202;SDS011;10759;51.982;9.232;2023-03-14T11:49:26;0.68;;;0.50;;
21202;SDS011;10759;51.982;9.232;2023-03-14T11:52:00;1.15;;;0.65;;
21202;SDS011;10759;51.982;9.232;2023-03-14T11:54:34;1.25;;;0.80;;
21202;SDS011;10759;51.982;9.232;2023-03-14T11:57:10;0.50;;;0.50;;
21202;SDS011;10759;51.982;9.232;2023-03-14T11:59:44;0.70;;;0.50;;
21202;SDS011;10759;51.982;9.232;2023-03-14T12:02:20;0.40;;;0.40;;
21202;SDS011;10759;51.982;9.232;2023-03-14T12:05:14;0.50;;;0.50;;
21202;SDS011;10759;51.982;9.232;2023-03-14T12:11:03;0.88;;;0.88;;
21202;SDS011;10759;51.982;9.232;2023-03-14T12:13:36;0.60;;;0.60;;
21202;SDS011;10759;51.982;9.232;2023-03-14T12:16:05;0.60;;;0.60;;
21202;SDS011;10759;51.982;9.232;2023-03-14T12:18:47;0.38;;;0.38;;
21202;SDS011;10759;51.982;9.232;2023-03-14T12:21:16;1.88;;;0.70;;
21202;SDS011;10759;51.982;9.232;2023-03-14T12:23:45;0.40;;;0.40;;
21202;SDS011;10759;51.982;9.232;2023-03-14T12:26:18;0.50;;;0.40;;
21202;SDS011;10759;51.982;9.232;2023-03-14T12:28:49;0.60;;;0.60;;
21202;SDS011;10759;51.982;9.232;2023-03-14T12:31:38;0.40;;;0.40;;
21202;SDS011;10759;51.982;9.232;2023-03-14T12:37:01;0.68;;;0.68;;
21202;SDS011;10759;51.982;9.232;2023-03-14T12:39:42;0.70;;;0.70;;
21202;SDS011;10759;51.982;9.232;2023-03-14T12:42:22;1.65;;;0.70;;
21202;SDS011;10759;51.982;9.232;2023-03-14T12:45:15;1.10;;;1.00;;
21202;SDS011;10759;51.982;9.232;2023-03-14T12:47:54;1.17;;;0.90;;
21202;SDS011;10759;51.982;9.232;2023-03-14T12:50:39;2.05;;;1.50;;
21202;SDS011;10759;51.982;9.232;2023-03-14T12:56:11;1.27;;;0.98;;
21202;SDS011;10759;51.982;9.232;2023-03-14T13:01:48;3.55;;;1.65;;
21202;SDS011;10759;51.982;9.232;2023-03-14T13:04:26;3.25;;;1.27;;
21202;SDS011;10759;51.982;9.232;2023-03-14T13:07:10;5.38;;;1.63;;
21202;SDS011;10759;51.982;9.232;2023-03-14T13:12:34;4.25;;;2.03;;
21202;SDS011;10759;51.982;9.232;2023-03-14T13:15:13;6.47;;;1.80;;
21202;SDS011;10759;51.982;9.232;2023-03-14T13:17:46;3.95;;;2.05;;
21202;SDS011;10759;51.982;9.232;2023-03-14T13:20:16;3.90;;;1.88;;
21202;SDS011;10759;51.982;9.232;2023-03-14T13:22:49;6.05;;;1.65;;
21202;SDS011;10759;51.982;9.232;2023-03-14T13:25:19;6.95;;;1.55;;
21202;SDS011;10759;51.982;9.232;2023-03-14T13:27:48;8.98;;;1.80;;
21202;SDS011;10759;51.982;9.232;2023-03-14T13:30:23;8.70;;;2.25;;
21202;SDS011;10759;51.982;9.232;2023-03-14T13:32:53;10.25;;;2.65;;
21202;SDS011;10759;51.982;9.232;2023-03-14T13:35:24;4.60;;;1.60;;
21202;SDS011;10759;51.982;9.232;2023-03-14T13:37:57;6.63;;;2.50;;
21202;SDS011;10759;51.982;9.232;2023-03-14T13:40:44;9.35;;;3.00;;
21202;SDS011;10759;51.982;9.232;2023-03-14T13:45:43;9.40;;;1.83;;
21202;SDS011;10759;51.982;9.232;2023-03-14T13:48:13;7.15;;;2.53;;
21202;SDS011;10759;51.982;9.232;2023-03-14T13:50:50;5.68;;;1.90;;
21202;SDS011;10759;51.982;9.232;2023-03-14T13:53:20;4.22;;;1.98;;
21202;SDS011;10759;51.982;9.232;2023-03-14T13:55:50;5.70;;;2.30;;
21202;SDS011;10759;51.982;9.232;2023-03-14T13:58:19;3.28;;;1.55;;
21202;SDS011;10759;51.982;9.232;2023-03-14T14:01:05;5.50;;;2.45;;
21202;SDS011;10759;51.982;9.232;2023-03-14T14:03:39;4.00;;;2.03;;
21202;SDS011;10759;51.982;9.232;2023-03-14T14:06:10;5.65;;;2.53;;
21202;SDS011;10759;51.982;9.232;2023-03-14T14:08:50;5.35;;;2.50;;
21202;SDS011;10759;51.982;9.232;2023-03-14T14:11:21;6.00;;;2.30;;
21202;SDS011;10759;51.982;9.232;2023-03-14T14:14:11;6.75;;;2.15;;
21202;SDS011;10759;51.982;9.232;2023-03-14T14:16:41;8.32;;;2.63;;
21202;SDS011;10759;51.982;9.232;2023-03-14T14:19:12;9.00;;;2.30;;
21202;SDS011;10759;51.982;9.232;2023-03-14T14:21:41;17.08;;;3.50;;
21202;SDS011;10759;51.982;9.232;2023-03-14T14:24:10;10.13;;;3.33;;
21202;SDS011;10759;51.982;9.232;2023-03-14T14:26:41;12.27;;;3.42;;
21202;SDS011;10759;51.982;9.232;2023-03-14T14:29:20;13.30;;;2.90;;
21202;SDS011;10759;51.982;9.232;2023-03-14T14:32:02;10.05;;;3.72;;
21202;SDS011;10759;51.982;9.232;2023-03-14T14:34:40;12.40;;;2.67;;
21202;SDS011;10759;51.982;9.232;2023-03-14T14:37:19;10.43;;;2.97;;
21202;SDS011;10759;51.982;9.232;2023-03-14T14:39:52;10.52;;;3.05;;
21202;SDS011;10759;51.982;9.232;2023-03-14T14:44:53;14.32;;;2.90;;
21202;SDS011;10759;51.982;9.232;2023-03-14T14:47:22;13.57;;;2.78;;
21202;SDS011;10759;51.982;9.232;2023-03-14T14:49:52;18.52;;;2.90;;
21202;SDS011;10759;51.982;9.232;2023-03-14T14:52:27;12.48;;;3.38;;
21202;SDS011;10759;51.982;9.232;2023-03-14T14:55:01;15.30;;;3.25;;
21202;SDS011;10759;51.982;9.232;2023-03-14T14:57:32;13.25;;;3.28;;
21202;SDS011;10759;51.982;9.232;2023-03-14T15:00:07;13.82;;;3.08;;
21202;SDS011;10759;51.982;9.232;2023-03-14T15:02:39;12.73;;;3.20;;
21202;SDS011;10759;51.982;9.232;2023-03-14T15:05:13;7.68;;;2.70;;
21202;SDS011;10759;51.982;9.232;2023-03-14T15:07:42;14.40;;;3.13;;
21202;SDS011;10759;51.982;9.232;2023-03-14T15:10:10;8.95;;;2.33;;
21202;SDS011;10759;51.982;9.232;2023-03-14T15:12:41;12.27;;;3.28;;
21202;SDS011;10759;51.982;9.232;2023-03-14T15:15:09;8.90;;;3.00;;
21202;SDS011;10759;51.982;9.232;2023-03-14T15:17:38;10.55;;;2.38;;
21202;SDS011;10759;51.982;9.232;2023-03-14T15:20:10;9.32;;;2.40;;
21202;SDS011;10759;51.982;9.232;2023-03-14T15:22:39;11.10;;;3.65;;
21202;SDS011;10759;51.982;9.232;2023-03-14T15:25:08;18.08;;;3.38;;
21202;SDS011;10759;51.982;9.232;2023-03-14T15:27:58;9.65;;;2.78;;
21202;SDS011;10759;51.982;9.232;2023-03-14T15:30:26;11.53;;;3.00;;
21202;SDS011;10759;51.982;9.232;2023-03-14T15:32:54;12.55;;;2.53;;
21202;SDS011;10759;51.982;9.232;2023-03-14T15:35:22;12.80;;;3.13;;
21202;SDS011;10759;51.982;9.232;2023-03-14T15:37:50;8.52;;;2.60;;
21202;SDS011;10759;51.982;9.232;2023-03-14T15:40:18;9.02;;;2.78;;
21202;SDS011;10759;51.982;9.232;2023-03-14T15:42:46;8.73;;;2.60;;
21202;SDS011;10759;51.982;9.232;2023-03-14T15:45:16;10.48;;;2.60;;
21202;SDS011;10759;51.982;9.232;2023-03-14T15:47:43;11.17;;;2.57;;
21202;SDS011;10759;51.982;9.232;2023-03-14T15:50:11;5.78;;;1.90;;
21202;SDS011;10759;51.982;9.232;2023-03-14T15:52:39;13.57;;;3.17;;